createdAt,value
2023-12-15T00:00:52.195Z,18.68
2023-12-15T00:01:52.086Z,18.69
2023-12-15T00:02:52.088Z,18.69
2023-12-15T00:03:52.113Z,18.68
2023-12-15T00:04:52.140Z,18.71
2023-12-15T00:05:52.231Z,18.66
2023-12-15T00:06:53.159Z,18.65
2023-12-15T00:07:52.229Z,18.66
2023-12-15T00:08:52.242Z,18.65
2023-12-15T00:09:52.198Z,18.66
2023-12-15T00:10:52.243Z,18.66
2023-12-15T00:12:52.212Z,18.66
2023-12-15T00:13:52.273Z,18.68
2023-12-15T00:14:52.268Z,18.68
2023-12-15T00:15:52.277Z,18.68
2023-12-15T00:16:52.309Z,18.66
2023-12-15T00:17:52.462Z,18.66
2023-12-15T00:18:52.405Z,18.66
2023-12-15T00:19:52.339Z,18.68
2023-12-15T00:20:52.318Z,18.66
2023-12-15T00:21:52.348Z,18.65
2023-12-15T00:22:52.359Z,18.66
2023-12-15T00:23:52.367Z,18.66
2023-12-15T00:24:52.364Z,18.66
2023-12-15T00:25:52.390Z,18.66
2023-12-15T00:26:52.386Z,18.66
2023-12-15T00:27:52.395Z,18.65
2023-12-15T00:28:52.451Z,18.66
2023-12-15T00:29:52.471Z,18.65
2023-12-15T00:30:52.534Z,18.66
2023-12-15T00:31:52.532Z,18.64
2023-12-15T00:32:52.589Z,18.64
2023-12-15T00:33:52.586Z,18.64
2023-12-15T00:34:52.520Z,18.68
2023-12-15T00:35:52.534Z,18.65
2023-12-15T00:36:52.547Z,18.66
2023-12-15T00:37:52.582Z,18.68
2023-12-15T00:38:52.563Z,18.68
2023-12-15T00:39:52.563Z,18.62
2023-12-15T00:40:52.619Z,18.62
2023-12-15T00:41:52.603Z,18.60
2023-12-15T00:42:52.645Z,18.62
2023-12-15T00:43:52.667Z,18.62
2023-12-15T00:45:53.619Z,18.62
2023-12-15T00:47:52.750Z,18.62
2023-12-15T00:48:52.855Z,18.62
2023-12-15T00:49:52.789Z,18.60
2023-12-15T00:50:52.720Z,18.60
2023-12-15T00:51:52.754Z,18.59
2023-12-15T00:52:52.803Z,18.59
2023-12-15T00:53:52.733Z,18.60
2023-12-15T00:54:52.758Z,18.62
2023-12-15T00:55:52.769Z,18.62
2023-12-15T00:56:52.805Z,18.59
2023-12-15T00:57:52.784Z,18.59
2023-12-15T00:58:52.791Z,18.59
2023-12-15T00:59:52.822Z,18.54
2023-12-15T01:00:52.829Z,18.57
2023-12-15T01:01:52.901Z,18.54
2023-12-15T01:02:52.859Z,18.56
2023-12-15T01:04:52.954Z,18.56
2023-12-15T01:05:52.896Z,18.59
2023-12-15T01:06:52.872Z,18.56
2023-12-15T01:07:52.937Z,18.59
2023-12-15T01:08:52.857Z,18.60
2023-12-15T01:09:52.862Z,18.59
2023-12-15T01:10:52.887Z,18.56
2023-12-15T01:11:52.896Z,18.59
2023-12-15T01:12:52.899Z,18.59
2023-12-15T01:13:52.894Z,18.60
2023-12-15T01:14:52.900Z,18.60
2023-12-15T01:15:52.901Z,18.60
2023-12-15T01:16:53.004Z,18.60
2023-12-15T01:17:55.769Z,18.64
2023-12-15T01:18:52.997Z,18.65
2023-12-15T01:19:52.982Z,18.60
2023-12-15T01:20:52.969Z,18.62
2023-12-15T01:21:52.966Z,18.64
2023-12-15T01:22:52.984Z,18.62
2023-12-15T01:23:52.977Z,18.64
2023-12-15T01:24:52.988Z,18.62
2023-12-15T01:25:53.070Z,18.62
2023-12-15T01:26:52.999Z,18.60
2023-12-15T01:27:53.018Z,18.60
2023-12-15T01:28:53.029Z,18.59
2023-12-15T01:29:53.013Z,18.60
2023-12-15T01:30:53.088Z,18.64
2023-12-15T01:31:53.060Z,18.62
2023-12-15T01:32:53.047Z,18.62
2023-12-15T01:33:53.107Z,18.64
2023-12-15T01:34:53.099Z,18.64
2023-12-15T01:35:53.106Z,18.65
2023-12-15T01:36:53.077Z,18.66
2023-12-15T01:37:53.151Z,18.65
2023-12-15T01:38:53.101Z,18.66
2023-12-15T01:39:53.156Z,18.68
2023-12-15T01:40:53.201Z,18.66
2023-12-15T01:42:53.169Z,18.66
2023-12-15T01:43:53.210Z,18.64
2023-12-15T01:44:53.187Z,18.65
2023-12-15T01:46:01.552Z,18.65
2023-12-15T01:46:53.242Z,18.65
2023-12-15T01:47:53.303Z,18.64
2023-12-15T01:48:53.295Z,18.65
2023-12-15T01:49:53.298Z,18.66
2023-12-15T01:50:53.240Z,18.68
2023-12-15T01:51:53.250Z,18.65
2023-12-15T01:52:53.294Z,18.65
2023-12-15T01:53:53.285Z,18.68
2023-12-15T01:54:53.354Z,18.68
2023-12-15T01:55:53.332Z,18.68
2023-12-15T01:56:53.299Z,18.66
2023-12-15T01:57:53.314Z,18.68
2023-12-15T01:58:53.353Z,18.66
2023-12-15T01:59:53.357Z,18.65
2023-12-15T02:00:54.278Z,18.69
2023-12-15T02:01:53.393Z,18.71
2023-12-15T02:02:53.346Z,18.71
2023-12-15T02:03:53.411Z,18.71
2023-12-15T02:04:53.493Z,18.72
2023-12-15T02:05:53.515Z,18.71
2023-12-15T02:06:53.373Z,18.72
2023-12-15T02:07:53.479Z,18.71
2023-12-15T02:08:53.386Z,18.69
2023-12-15T02:09:53.436Z,18.69
2023-12-15T02:10:53.429Z,18.72
2023-12-15T02:11:53.411Z,18.72
2023-12-15T02:12:53.457Z,18.72
2023-12-15T02:13:53.507Z,18.71
2023-12-15T02:14:53.454Z,18.69
2023-12-15T02:15:53.509Z,18.71
2023-12-15T02:16:53.514Z,18.72
2023-12-15T02:17:53.581Z,18.71
2023-12-15T02:18:53.617Z,18.71
2023-12-15T02:19:53.628Z,18.71
2023-12-15T02:20:53.533Z,18.72
2023-12-15T02:21:53.561Z,18.71
2023-12-15T02:22:53.613Z,18.74
2023-12-15T02:23:53.578Z,18.76
2023-12-15T02:24:53.626Z,18.76
2023-12-15T02:25:53.634Z,18.76
2023-12-15T02:26:53.601Z,18.76
2023-12-15T02:27:53.594Z,18.74
2023-12-15T02:28:53.651Z,18.75
2023-12-15T02:29:53.615Z,18.74
2023-12-15T02:30:53.674Z,18.74
2023-12-15T02:31:53.702Z,18.78
2023-12-15T02:32:53.793Z,18.76
2023-12-15T02:33:53.750Z,18.76
2023-12-15T02:34:53.654Z,18.76
2023-12-15T02:35:53.671Z,18.78
2023-12-15T02:36:53.694Z,18.76
2023-12-15T02:37:53.761Z,18.75
2023-12-15T02:38:53.676Z,18.74
2023-12-15T02:39:53.675Z,18.75
2023-12-15T02:40:53.738Z,18.75
2023-12-15T02:41:53.705Z,18.75
2023-12-15T02:42:53.723Z,18.75
2023-12-15T02:43:53.753Z,18.74
2023-12-15T02:44:53.715Z,18.74
2023-12-15T02:45:53.734Z,18.74
2023-12-15T02:46:53.791Z,18.72
2023-12-15T02:47:53.915Z,18.74
2023-12-15T02:48:53.863Z,18.76
2023-12-15T02:49:53.847Z,18.72
2023-12-15T02:50:53.844Z,18.74
2023-12-15T02:51:53.861Z,18.74
2023-12-15T02:52:53.942Z,18.75
2023-12-15T02:53:53.918Z,18.75
2023-12-15T02:54:53.891Z,18.75
2023-12-15T02:55:53.911Z,18.76
2023-12-15T02:56:53.954Z,18.76
2023-12-15T02:57:53.990Z,18.76
2023-12-15T02:58:53.987Z,18.76
2023-12-15T02:59:53.992Z,18.79
2023-12-15T03:00:54.020Z,18.78
2023-12-15T03:01:54.111Z,18.79
2023-12-15T03:02:54.021Z,18.79
2023-12-15T03:03:56.028Z,18.82
2023-12-15T03:04:54.083Z,18.74
2023-12-15T03:05:54.081Z,18.76
2023-12-15T03:06:54.021Z,18.75
2023-12-15T03:07:54.085Z,18.76
2023-12-15T03:08:54.081Z,18.75
2023-12-15T03:09:54.113Z,18.75
2023-12-15T03:10:54.108Z,18.74
2023-12-15T03:11:54.107Z,18.74
2023-12-15T03:12:54.158Z,18.76
2023-12-15T03:13:54.199Z,18.78
2023-12-15T03:14:54.169Z,18.79
2023-12-15T03:15:54.133Z,18.83
2023-12-15T03:16:54.181Z,18.82
2023-12-15T03:17:54.263Z,18.82
2023-12-15T03:18:54.223Z,18.82
2023-12-15T03:19:54.209Z,18.79
2023-12-15T03:20:54.198Z,18.78
2023-12-15T03:21:54.202Z,18.78
2023-12-15T03:22:54.273Z,18.79
2023-12-15T03:23:54.238Z,18.79
2023-12-15T03:24:54.273Z,18.79
2023-12-15T03:25:54.327Z,18.76
2023-12-15T03:26:54.270Z,18.75
2023-12-15T03:27:54.284Z,18.76
2023-12-15T03:28:54.313Z,18.74
2023-12-15T03:29:54.283Z,18.76
2023-12-15T03:30:54.300Z,18.76
2023-12-15T03:31:54.325Z,18.78
2023-12-15T03:32:54.345Z,18.74
2023-12-15T03:33:54.393Z,18.74
2023-12-15T03:34:54.373Z,18.76
2023-12-15T03:35:54.340Z,18.76
2023-12-15T03:36:54.328Z,18.79
2023-12-15T03:37:54.348Z,18.82
2023-12-15T03:38:54.345Z,18.78
2023-12-15T03:39:54.419Z,18.78
2023-12-15T03:41:54.406Z,18.79
2023-12-15T03:42:54.396Z,18.78
2023-12-15T03:43:54.464Z,18.79
2023-12-15T03:44:54.441Z,18.79
2023-12-15T03:45:54.429Z,18.79
2023-12-15T03:46:54.474Z,18.82
2023-12-15T03:47:54.578Z,18.82
2023-12-15T03:48:54.512Z,18.82
2023-12-15T03:49:54.570Z,18.79
2023-12-15T03:50:54.514Z,18.79
2023-12-15T03:51:54.517Z,18.82
2023-12-15T03:52:54.595Z,18.79
2023-12-15T03:53:54.538Z,18.82
2023-12-15T03:54:56.809Z,18.83
2023-12-15T03:55:54.581Z,18.83
2023-12-15T03:56:54.548Z,18.84
2023-12-15T03:57:54.592Z,18.82
2023-12-15T03:58:54.706Z,18.79
2023-12-15T03:59:54.633Z,18.79
2023-12-15T04:00:54.622Z,18.79
2023-12-15T04:01:54.664Z,18.79
2023-12-15T04:02:54.720Z,18.79
2023-12-15T04:03:54.715Z,18.78
2023-12-15T04:04:54.817Z,18.79
2023-12-15T04:05:54.914Z,18.78
2023-12-15T04:06:54.709Z,18.79
2023-12-15T04:07:54.732Z,18.79
2023-12-15T04:08:54.714Z,18.79
2023-12-15T04:09:54.723Z,18.79
2023-12-15T04:10:54.777Z,18.82
2023-12-15T04:11:54.773Z,18.78
2023-12-15T04:12:54.744Z,18.76
2023-12-15T04:13:54.798Z,18.78
2023-12-15T04:14:54.753Z,18.79
2023-12-15T04:15:57.699Z,18.83
2023-12-15T04:16:54.824Z,18.83
2023-12-15T04:17:54.920Z,18.79
2023-12-15T04:18:55.003Z,18.79
2023-12-15T04:19:54.840Z,18.79
2023-12-15T04:20:54.848Z,18.82
2023-12-15T04:21:54.809Z,18.82
2023-12-15T04:22:54.853Z,18.83
2023-12-15T04:23:54.812Z,18.79
2023-12-15T04:24:54.848Z,18.82
2023-12-15T04:25:54.895Z,18.76
2023-12-15T04:26:54.906Z,18.75
2023-12-15T04:27:54.916Z,18.79
2023-12-15T04:28:54.924Z,18.79
2023-12-15T04:29:54.913Z,18.78
2023-12-15T04:30:55.044Z,18.78
2023-12-15T04:31:54.952Z,18.76
2023-12-15T04:32:54.890Z,18.78
2023-12-15T04:33:54.951Z,18.75
2023-12-15T04:34:54.989Z,18.76
2023-12-15T04:35:54.905Z,18.76
2023-12-15T04:36:54.921Z,18.79
2023-12-15T04:37:54.927Z,18.79
2023-12-15T04:39:54.921Z,18.75
2023-12-15T04:40:54.968Z,18.75
2023-12-15T04:41:54.962Z,18.74
2023-12-15T04:42:54.936Z,18.75
2023-12-15T04:43:54.985Z,18.76
2023-12-15T04:45:55.068Z,18.76
2023-12-15T04:46:55.007Z,18.78
2023-12-15T04:47:55.001Z,18.76
2023-12-15T04:48:55.104Z,18.72
2023-12-15T04:49:55.068Z,18.71
2023-12-15T04:50:55.031Z,18.74
2023-12-15T04:51:55.038Z,18.74
2023-12-15T04:52:55.074Z,18.75
2023-12-15T04:53:55.057Z,18.71
2023-12-15T04:54:55.052Z,18.69
2023-12-15T04:55:55.073Z,18.69
2023-12-15T04:56:55.063Z,18.74
2023-12-15T04:57:55.105Z,18.72
2023-12-15T04:58:55.097Z,18.74
2023-12-15T05:00:55.199Z,18.71
2023-12-15T05:01:55.188Z,18.69
2023-12-15T05:02:55.180Z,18.69
2023-12-15T05:03:55.177Z,18.69
2023-12-15T05:04:55.155Z,18.71
2023-12-15T05:05:55.380Z,18.71
2023-12-15T05:06:55.147Z,18.68
2023-12-15T05:07:55.216Z,18.68
2023-12-15T05:08:55.157Z,18.68
2023-12-15T05:09:55.289Z,18.68
2023-12-15T05:10:55.210Z,18.68
2023-12-15T05:11:55.234Z,18.65
2023-12-15T05:12:55.229Z,18.66
2023-12-15T05:13:55.278Z,18.62
2023-12-15T05:14:55.255Z,18.62
2023-12-15T05:15:55.283Z,18.65
2023-12-15T05:16:55.327Z,18.65
2023-12-15T05:17:55.533Z,18.65
2023-12-15T05:18:55.463Z,18.65
2023-12-15T05:19:55.326Z,18.69
2023-12-15T05:20:55.289Z,18.64
2023-12-15T05:21:55.300Z,18.64
2023-12-15T05:22:55.366Z,18.64
2023-12-15T05:23:55.328Z,18.60
2023-12-15T05:24:55.338Z,18.62
2023-12-15T05:25:55.388Z,18.65
2023-12-15T05:26:55.330Z,18.64
2023-12-15T05:27:55.350Z,18.60
2023-12-15T05:28:58.236Z,18.64
2023-12-15T05:29:55.385Z,18.64
2023-12-15T05:30:55.449Z,18.64
2023-12-15T05:32:55.525Z,18.65
2023-12-15T05:33:55.518Z,18.65
2023-12-15T05:34:55.456Z,18.66
2023-12-15T05:35:55.555Z,18.65
2023-12-15T05:36:55.469Z,18.66
2023-12-15T05:37:55.637Z,18.62
2023-12-15T05:38:55.521Z,18.64
2023-12-15T05:39:55.520Z,18.68
2023-12-15T05:40:55.557Z,18.66
2023-12-15T05:41:55.516Z,18.64
2023-12-15T05:42:55.548Z,18.69
2023-12-15T05:43:55.608Z,18.65
2023-12-15T05:44:55.489Z,18.65
2023-12-15T05:45:55.498Z,18.65
2023-12-15T05:46:55.639Z,18.68
2023-12-15T05:47:55.684Z,18.68
2023-12-15T05:48:55.906Z,18.69
2023-12-15T05:49:55.669Z,18.66
2023-12-15T05:50:55.594Z,18.69
2023-12-15T05:51:55.509Z,18.68
2023-12-15T05:52:55.579Z,18.71
2023-12-15T05:53:58.385Z,18.72
2023-12-15T05:54:55.541Z,18.71
2023-12-15T05:55:55.630Z,18.72
2023-12-15T05:56:55.566Z,18.69
2023-12-15T05:57:55.568Z,18.71
2023-12-15T05:58:55.616Z,18.69
2023-12-15T05:59:55.598Z,18.71
2023-12-15T06:00:55.588Z,18.69
2023-12-15T06:01:55.619Z,18.71
2023-12-15T06:02:55.640Z,18.74
2023-12-15T06:03:55.618Z,18.74
2023-12-15T06:04:55.665Z,18.74
2023-12-15T06:05:55.680Z,18.74
2023-12-15T06:06:55.626Z,18.72
2023-12-15T06:07:55.692Z,18.74
2023-12-15T06:08:55.725Z,18.75
2023-12-15T06:09:55.668Z,18.75
2023-12-15T06:10:55.687Z,18.74
2023-12-15T06:11:55.670Z,18.72
2023-12-15T06:12:55.686Z,18.72
2023-12-15T06:13:55.727Z,18.71
2023-12-15T06:14:55.705Z,18.69
2023-12-15T06:15:55.814Z,18.66
2023-12-15T06:16:55.801Z,18.59
2023-12-15T06:17:56.049Z,18.53
2023-12-15T06:18:55.808Z,18.47
2023-12-15T06:21:55.842Z,18.35
2023-12-15T06:22:56.164Z,18.34
2023-12-15T06:23:55.849Z,18.31
2023-12-15T06:24:55.865Z,18.29
2023-12-15T06:25:55.889Z,18.26
2023-12-15T06:26:55.877Z,18.25
2023-12-15T06:27:55.884Z,18.21
2023-12-15T06:28:55.911Z,18.19
2023-12-15T06:30:56.068Z,18.21
2023-12-15T06:31:56.019Z,18.25
2023-12-15T06:32:56.053Z,18.31
2023-12-15T06:33:56.098Z,18.34
2023-12-15T06:34:56.184Z,18.35
2023-12-15T06:35:56.122Z,18.38
2023-12-15T06:36:56.039Z,18.42
2023-12-15T06:37:56.169Z,18.42
2023-12-15T06:38:56.158Z,18.46
2023-12-15T06:39:56.151Z,18.47
2023-12-15T06:40:56.076Z,18.46
2023-12-15T06:41:58.278Z,18.51
2023-12-15T06:42:56.100Z,18.51
2023-12-15T06:43:56.095Z,18.53
2023-12-15T06:44:56.109Z,18.54
2023-12-15T06:45:56.112Z,18.57
2023-12-15T06:46:56.121Z,18.59
2023-12-15T06:47:56.259Z,18.59
2023-12-15T06:48:56.191Z,18.60
2023-12-15T06:50:56.119Z,18.65
2023-12-15T06:51:56.148Z,18.64
2023-12-15T06:52:56.259Z,18.64
2023-12-15T06:53:56.144Z,18.66
2023-12-15T06:54:56.159Z,18.66
2023-12-15T06:55:56.279Z,18.69
2023-12-15T06:56:56.267Z,18.71
2023-12-15T06:57:56.268Z,18.69
2023-12-15T06:58:56.237Z,18.72
2023-12-15T06:59:56.210Z,18.69
2023-12-15T07:00:56.287Z,18.69
2023-12-15T07:01:56.218Z,18.74
2023-12-15T07:02:56.298Z,18.75
2023-12-15T07:03:56.384Z,18.75
2023-12-15T07:04:56.439Z,18.75
2023-12-15T07:05:56.418Z,18.74
2023-12-15T07:08:56.316Z,18.76
2023-12-15T07:09:56.382Z,18.78
2023-12-15T07:10:56.389Z,18.79
2023-12-15T07:11:56.361Z,18.78
2023-12-15T07:12:56.400Z,18.83
2023-12-15T07:13:56.437Z,18.83
2023-12-15T07:14:57.286Z,18.83
2023-12-15T07:15:56.402Z,18.82
2023-12-15T07:16:56.454Z,18.82
2023-12-15T07:17:56.583Z,18.83
2023-12-15T07:18:56.479Z,18.84
2023-12-15T07:19:56.585Z,18.83
2023-12-15T07:20:56.516Z,18.84
2023-12-15T07:22:56.596Z,18.84
2023-12-15T07:23:56.536Z,18.86
2023-12-15T07:24:56.473Z,18.89
2023-12-15T07:25:56.781Z,18.89
2023-12-15T07:26:56.487Z,18.90
2023-12-15T07:27:56.615Z,18.91
2023-12-15T07:28:56.491Z,18.89
2023-12-15T07:29:56.499Z,18.89
2023-12-15T07:30:56.631Z,18.89
2023-12-15T07:31:56.563Z,18.86
2023-12-15T07:32:56.671Z,18.89
2023-12-15T07:33:56.781Z,18.89
2023-12-15T07:34:56.602Z,18.90
2023-12-15T07:35:56.713Z,18.91
2023-12-15T07:36:56.622Z,18.90
2023-12-15T07:37:56.681Z,18.90
2023-12-15T07:38:56.666Z,18.89
2023-12-15T07:39:56.575Z,18.91
2023-12-15T07:40:56.669Z,18.89
2023-12-15T07:41:56.655Z,18.90
2023-12-15T07:42:56.660Z,18.91
2023-12-15T07:43:56.646Z,18.93
2023-12-15T07:44:56.604Z,18.97
2023-12-15T07:46:56.796Z,19.01
2023-12-15T07:47:56.863Z,18.97
2023-12-15T07:49:56.749Z,19.05
2023-12-15T07:50:56.759Z,19.02
2023-12-15T07:51:58.670Z,19.01
2023-12-15T07:52:56.849Z,19.05
2023-12-15T07:53:56.731Z,19.06
2023-12-15T07:54:56.871Z,19.07
2023-12-15T07:56:56.676Z,19.06
2023-12-15T07:57:56.794Z,19.05
2023-12-15T07:58:56.811Z,19.06
2023-12-15T07:59:56.914Z,19.09
2023-12-15T08:00:56.825Z,19.12
2023-12-15T08:01:56.867Z,19.12
2023-12-15T08:02:56.831Z,19.12
2023-12-15T08:03:56.823Z,19.10
2023-12-15T08:04:56.881Z,19.12
2023-12-15T08:05:56.998Z,19.15
2023-12-15T08:06:56.915Z,19.15
2023-12-15T08:07:56.874Z,19.16
2023-12-15T08:08:57.442Z,19.15
2023-12-15T08:09:56.862Z,19.13
2023-12-15T08:10:57.060Z,19.13
2023-12-15T08:11:56.879Z,19.15
2023-12-15T08:12:56.944Z,19.13
2023-12-15T08:13:57.116Z,19.15
2023-12-15T08:14:57.096Z,19.15
2023-12-15T08:15:56.957Z,19.13
2023-12-15T08:16:57.359Z,19.17
2023-12-15T08:17:57.361Z,19.13
2023-12-15T08:18:57.103Z,19.17
2023-12-15T08:19:57.260Z,19.13
2023-12-15T08:20:57.305Z,19.16
2023-12-15T08:22:57.893Z,19.20
2023-12-15T08:23:57.144Z,19.23
2023-12-15T08:24:57.057Z,19.17
2023-12-15T08:25:57.115Z,19.17
2023-12-15T08:26:57.251Z,19.21
2023-12-15T08:27:57.170Z,19.21
2023-12-15T08:28:57.525Z,19.27
2023-12-15T08:31:57.177Z,19.28
2023-12-15T08:32:57.431Z,19.27
2023-12-15T08:33:57.259Z,19.24
2023-12-15T08:35:57.252Z,19.25
2023-12-15T08:36:57.163Z,19.27
2023-12-15T08:37:57.322Z,19.25
2023-12-15T08:38:57.289Z,19.20
2023-12-15T08:40:57.313Z,19.24
2023-12-15T08:41:57.367Z,19.27
2023-12-15T08:42:57.228Z,19.27
2023-12-15T08:43:57.230Z,19.30
2023-12-15T08:44:57.334Z,19.31
2023-12-15T08:47:57.480Z,19.32
2023-12-15T08:49:57.397Z,19.13
2023-12-15T08:50:57.428Z,19.02
2023-12-15T08:51:57.556Z,18.90
2023-12-15T08:52:57.456Z,18.79
2023-12-15T08:54:57.448Z,18.66
2023-12-15T08:55:57.444Z,18.60
2023-12-15T08:56:57.757Z,18.51
2023-12-15T08:57:58.307Z,18.49
2023-12-15T08:58:57.560Z,18.56
2023-12-15T08:59:57.505Z,18.64
2023-12-15T09:00:57.539Z,18.71
2023-12-15T09:01:57.583Z,18.78
2023-12-15T09:02:57.544Z,18.83
2023-12-15T09:03:57.532Z,18.89
2023-12-15T09:05:02.434Z,18.93
2023-12-15T09:06:16.991Z,18.99
2023-12-15T09:06:57.673Z,19.02
2023-12-15T09:07:57.946Z,19.06
2023-12-15T09:09:57.577Z,19.10
2023-12-15T09:10:57.708Z,19.16
2023-12-15T09:11:57.585Z,19.16
2023-12-15T09:12:57.798Z,19.20
2023-12-15T09:13:58.532Z,19.25
2023-12-15T09:15:57.752Z,19.31
2023-12-15T09:16:57.721Z,19.34
2023-12-15T09:17:57.849Z,19.34
2023-12-15T09:18:57.889Z,19.40
2023-12-15T09:19:57.726Z,19.45
2023-12-15T09:20:57.885Z,19.49
2023-12-15T09:21:58.037Z,19.50
2023-12-15T09:22:57.830Z,19.55
2023-12-15T09:23:58.393Z,19.57
2023-12-15T09:24:57.846Z,19.57
2023-12-15T09:25:57.888Z,19.60
2023-12-15T09:27:57.859Z,19.64
2023-12-15T09:29:57.895Z,19.64
2023-12-15T09:31:57.963Z,19.64
2023-12-15T09:32:58.218Z,19.67
2023-12-15T09:33:58.189Z,19.64
2023-12-15T09:34:58.159Z,19.60
2023-12-15T09:35:58.181Z,19.65
2023-12-15T09:36:58.151Z,19.64
2023-12-15T09:37:58.192Z,19.62
2023-12-15T09:38:59.546Z,19.65
2023-12-15T09:39:58.078Z,19.62
2023-12-15T09:40:58.443Z,19.62
2023-12-15T09:41:58.214Z,19.62
2023-12-15T09:43:58.211Z,19.58
2023-12-15T09:45:06.596Z,19.58
2023-12-15T09:45:58.200Z,19.58
2023-12-15T09:46:58.265Z,19.61
2023-12-15T09:47:58.378Z,19.60
2023-12-15T09:48:58.316Z,19.64
2023-12-15T09:49:58.395Z,19.64
2023-12-15T09:50:58.259Z,19.67
2023-12-15T09:51:58.230Z,19.68
2023-12-15T09:53:58.226Z,19.62
2023-12-15T09:54:58.265Z,19.62
2023-12-15T09:55:58.313Z,19.62
2023-12-15T09:56:58.385Z,19.62
2023-12-15T09:57:58.282Z,19.65
2023-12-15T09:58:58.343Z,19.68
2023-12-15T09:59:58.444Z,19.70
2023-12-15T10:00:58.488Z,19.65
2023-12-15T10:01:58.531Z,19.65
2023-12-15T10:02:58.355Z,19.65
2023-12-15T10:03:58.356Z,19.67
2023-12-15T10:04:58.411Z,19.64
2023-12-15T10:05:58.468Z,19.65
2023-12-15T10:06:58.357Z,19.65
2023-12-15T10:07:58.656Z,19.65
2023-12-15T10:09:02.361Z,19.70
2023-12-15T10:09:58.462Z,19.71
2023-12-15T10:10:58.395Z,19.75
2023-12-15T10:11:58.403Z,19.75
2023-12-15T10:12:58.499Z,19.76
2023-12-15T10:13:58.520Z,19.79
2023-12-15T10:14:58.527Z,19.78
2023-12-15T10:15:58.514Z,19.80
2023-12-15T10:16:58.695Z,19.86
2023-12-15T10:18:58.789Z,19.95
2023-12-15T10:19:58.588Z,19.94
2023-12-15T10:20:58.538Z,19.97
2023-12-15T10:23:58.566Z,20.02
2023-12-15T10:25:58.591Z,20.05
2023-12-15T10:26:58.679Z,20.02
2023-12-15T10:28:00.279Z,20.05
2023-12-15T10:28:58.768Z,20.05
2023-12-15T10:29:58.619Z,20.08
2023-12-15T10:30:58.634Z,20.10
2023-12-15T10:31:58.785Z,20.08
2023-12-15T10:32:59.033Z,20.08
2023-12-15T10:34:00.844Z,20.10
2023-12-15T10:34:58.798Z,20.08
2023-12-15T10:37:58.754Z,20.08
2023-12-15T10:38:58.699Z,20.08
2023-12-15T10:40:01.673Z,20.10
2023-12-15T10:40:58.756Z,20.08
2023-12-15T10:41:58.742Z,20.10
2023-12-15T10:42:58.791Z,20.08
2023-12-15T10:43:58.995Z,20.10
2023-12-15T10:44:58.850Z,20.01
2023-12-15T10:46:01.552Z,20.04
2023-12-15T10:46:58.958Z,20.05
2023-12-15T10:47:59.377Z,20.07
2023-12-15T10:48:58.954Z,20.04
2023-12-15T10:49:58.911Z,20.07
2023-12-15T10:50:58.856Z,20.07
2023-12-15T10:52:00.223Z,20.07
2023-12-15T10:52:58.846Z,20.07
2023-12-15T10:53:58.975Z,20.04
2023-12-15T10:54:58.813Z,20.05
2023-12-15T10:55:58.870Z,20.05
2023-12-15T10:56:59.112Z,20.07
2023-12-15T10:58:01.259Z,20.07
2023-12-15T10:59:58.931Z,20.07
2023-12-15T11:00:59.184Z,20.05
2023-12-15T11:01:58.928Z,20.05
2023-12-15T11:02:58.998Z,20.04
2023-12-15T11:04:00.339Z,20.04
2023-12-15T11:05:59.264Z,20.04
2023-12-15T11:06:59.061Z,20.05
2023-12-15T11:07:59.132Z,20.05
2023-12-15T11:08:59.203Z,20.05
2023-12-15T11:10:01.721Z,20.08
2023-12-15T11:10:59.191Z,20.12
2023-12-15T11:11:59.548Z,20.12
2023-12-15T11:12:59.240Z,20.12
2023-12-15T11:13:59.160Z,20.12
2023-12-15T11:14:59.147Z,20.12
2023-12-15T11:16:59.320Z,20.04
2023-12-15T11:17:59.453Z,20.02
2023-12-15T11:18:59.449Z,20.04
2023-12-15T11:19:59.258Z,20.07
2023-12-15T11:20:59.182Z,20.04
2023-12-15T11:21:59.144Z,20.01
2023-12-15T11:22:59.236Z,20.04
2023-12-15T11:23:59.408Z,20.04
2023-12-15T11:24:59.612Z,20.00
2023-12-15T11:25:59.274Z,19.98
2023-12-15T11:26:59.434Z,20.00
2023-12-15T11:27:59.241Z,20.01
2023-12-15T11:28:59.393Z,20.00
2023-12-15T11:29:59.292Z,20.00
2023-12-15T11:31:59.276Z,19.97
2023-12-15T11:32:59.516Z,19.95
2023-12-15T11:33:59.362Z,19.92
2023-12-15T11:34:59.314Z,19.90
2023-12-15T11:35:59.283Z,19.87
2023-12-15T11:36:59.417Z,19.90
2023-12-15T11:37:59.410Z,19.92
2023-12-15T11:38:59.426Z,19.90
2023-12-15T11:40:59.482Z,19.89
2023-12-15T11:42:59.354Z,19.90
2023-12-15T11:44:59.765Z,19.89
2023-12-15T11:45:59.443Z,19.90
2023-12-15T11:46:59.432Z,19.95
2023-12-15T11:48:01.511Z,19.95
2023-12-15T11:48:59.884Z,19.95
2023-12-15T11:50:59.475Z,19.92
2023-12-15T11:51:59.461Z,19.92
2023-12-15T11:52:59.494Z,19.92
2023-12-15T11:54:59.624Z,19.89
2023-12-15T11:55:59.536Z,19.87
2023-12-15T11:56:59.483Z,19.87
2023-12-15T11:57:59.479Z,19.89
2023-12-15T11:58:59.591Z,19.87
2023-12-15T11:59:59.502Z,19.89
2023-12-15T12:00:59.542Z,19.87
2023-12-15T12:01:59.549Z,19.86
2023-12-15T12:02:59.577Z,19.85
2023-12-15T12:03:59.604Z,19.83
2023-12-15T12:04:59.670Z,19.83
2023-12-15T12:05:59.582Z,19.79
2023-12-15T12:06:59.561Z,19.79
2023-12-15T12:07:59.567Z,19.80
2023-12-15T12:08:59.594Z,19.79
2023-12-15T12:09:59.573Z,19.79
2023-12-15T12:11:02.163Z,19.76
2023-12-15T12:11:59.583Z,19.75
2023-12-15T12:12:59.689Z,19.75
2023-12-15T12:13:59.656Z,19.71
2023-12-15T12:14:59.642Z,19.70
2023-12-15T12:15:59.611Z,19.68
2023-12-15T12:16:59.717Z,19.71
2023-12-15T12:17:59.771Z,19.71
2023-12-15T12:18:59.857Z,19.72
2023-12-15T12:20:00.628Z,19.72
2023-12-15T12:20:59.672Z,19.70
2023-12-15T12:21:59.812Z,19.72
2023-12-15T12:22:59.698Z,19.70
2023-12-15T12:23:59.695Z,19.68
2023-12-15T12:24:59.742Z,19.68
2023-12-15T12:25:59.683Z,19.67
2023-12-15T12:26:59.700Z,19.68
2023-12-15T12:29:02.833Z,19.68
2023-12-15T12:30:59.793Z,19.70
2023-12-15T12:31:59.843Z,19.71
2023-12-15T12:32:59.940Z,19.72
2023-12-15T12:33:59.917Z,19.67
2023-12-15T12:34:59.922Z,19.68
2023-12-15T12:35:59.789Z,19.68
2023-12-15T12:36:59.777Z,19.64
2023-12-15T12:37:59.847Z,19.65
2023-12-15T12:38:59.834Z,19.71
2023-12-15T12:39:59.872Z,19.68
2023-12-15T12:40:59.964Z,19.67
2023-12-15T12:41:59.834Z,19.67
2023-12-15T12:42:59.814Z,19.64
2023-12-15T12:43:59.887Z,19.61
2023-12-15T12:44:59.874Z,19.62
2023-12-15T12:45:59.880Z,19.60
2023-12-15T12:47:00.214Z,19.65
2023-12-15T12:48:00.074Z,19.61
2023-12-15T12:49:00.001Z,19.68
2023-12-15T12:50:00.033Z,19.72
2023-12-15T12:51:00.045Z,19.70
2023-12-15T12:53:00.119Z,19.71
2023-12-15T12:53:59.991Z,19.72
2023-12-15T12:55:00.015Z,19.70
2023-12-15T12:56:00.469Z,19.67
2023-12-15T12:57:01.071Z,19.70
2023-12-15T12:58:00.041Z,19.70
2023-12-15T12:59:02.320Z,19.67
2023-12-15T13:00:00.056Z,19.65
2023-12-15T13:01:00.127Z,19.65
2023-12-15T13:02:11.076Z,19.65
2023-12-15T13:03:00.191Z,19.68
2023-12-15T13:04:00.237Z,19.67
2023-12-15T13:05:00.940Z,19.67
2023-12-15T13:06:00.269Z,19.65
2023-12-15T13:08:26.191Z,19.68
2023-12-15T13:09:26.131Z,19.71
2023-12-15T13:10:26.016Z,19.75
2023-12-15T13:11:26.057Z,19.76
2023-12-15T13:12:26.055Z,19.78
2023-12-15T13:13:26.059Z,19.76
2023-12-15T13:14:26.114Z,19.76
2023-12-15T13:15:26.057Z,19.76
2023-12-15T13:16:26.076Z,19.71
2023-12-15T13:17:26.178Z,19.72
2023-12-15T13:18:26.247Z,19.75
2023-12-15T13:19:26.199Z,19.75
2023-12-15T13:20:26.282Z,19.70
2023-12-15T13:21:26.171Z,19.65
2023-12-15T13:22:28.896Z,19.65
2023-12-15T13:23:26.226Z,19.65
2023-12-15T13:24:26.231Z,19.67
2023-12-15T13:25:26.249Z,19.65
2023-12-15T13:26:26.278Z,19.64
2023-12-15T13:27:26.218Z,19.65
2023-12-15T13:28:26.246Z,19.64
2023-12-15T13:29:33.636Z,19.62
2023-12-15T13:30:26.349Z,19.65
2023-12-15T13:31:26.345Z,19.67
2023-12-15T13:32:26.335Z,19.64
2023-12-15T13:33:26.401Z,19.65
2023-12-15T13:34:27.120Z,19.64
2023-12-15T13:35:26.281Z,19.62
2023-12-15T13:36:26.333Z,19.62
2023-12-15T13:37:26.278Z,19.61
2023-12-15T13:38:26.301Z,19.62
2023-12-15T13:39:26.289Z,19.62
2023-12-15T13:40:26.296Z,19.61
2023-12-15T13:41:26.354Z,19.62
2023-12-15T13:42:26.306Z,19.60
2023-12-15T13:43:26.349Z,19.61
2023-12-15T13:44:26.357Z,19.60
2023-12-15T13:45:26.349Z,19.60
2023-12-15T13:46:26.353Z,19.60
2023-12-15T13:47:26.459Z,19.61
2023-12-15T13:48:26.510Z,19.61